createdAt,value
2023-04-20T00:02:08.217Z,41.40
2023-04-20T00:05:11.267Z,39.20
2023-04-20T00:08:12.906Z,42.00
2023-04-20T00:11:14.653Z,47.60
2023-04-20T00:14:16.271Z,45.00
2023-04-20T00:17:17.911Z,53.30
2023-04-20T00:20:19.494Z,50.10
2023-04-20T00:23:21.094Z,49.80
2023-04-20T00:26:22.709Z,47.40
2023-04-20T00:29:25.069Z,48.70
2023-04-20T00:32:27.805Z,52.90
2023-04-20T00:35:29.649Z,52.80
2023-04-20T00:38:31.246Z,55.20
2023-04-20T00:41:34.352Z,52.70
2023-04-20T00:44:36.051Z,54.00
2023-04-20T00:47:37.971Z,51.30
2023-04-20T00:50:40.517Z,52.80
2023-04-20T00:53:42.293Z,58.50
2023-04-20T00:56:44.166Z,54.70
2023-04-20T00:59:46.001Z,58.10
2023-04-20T01:02:49.061Z,50.50
2023-04-20T01:05:51.162Z,53.40
2023-04-20T01:08:53.100Z,57.40
2023-04-20T01:11:54.780Z,58.60
2023-04-20T01:14:56.435Z,54.90
2023-04-20T01:17:58.168Z,52.20
2023-04-20T01:20:59.813Z,52.00
2023-04-20T01:24:02.784Z,50.30
2023-04-20T01:27:07.406Z,50.00
2023-04-20T01:30:10.553Z,51.70
2023-04-20T01:33:12.488Z,47.50
2023-04-20T01:36:14.276Z,50.20
2023-04-20T01:39:16.965Z,49.20
2023-04-20T01:42:18.888Z,49.10
2023-04-20T01:45:20.622Z,49.90
2023-04-20T01:48:22.252Z,51.50
2023-04-20T01:51:23.891Z,55.50
2023-04-20T01:54:25.543Z,52.30
2023-04-20T01:57:27.134Z,50.20
2023-04-20T02:00:28.798Z,50.90
2023-04-20T02:03:30.616Z,54.20
2023-04-20T02:06:32.605Z,48.40
2023-04-20T02:09:35.054Z,53.70
2023-04-20T02:12:37.050Z,46.40
2023-04-20T02:15:39.143Z,48.50
2023-04-20T02:18:40.837Z,51.20
2023-04-20T02:21:42.658Z,54.30
2023-04-20T02:24:44.394Z,48.20
2023-04-20T02:27:46.025Z,46.80
2023-04-20T02:30:47.656Z,48.00
2023-04-20T02:33:49.343Z,47.40
2023-04-20T02:36:50.972Z,49.60
2023-04-20T02:39:52.607Z,48.90
2023-04-20T02:42:54.260Z,48.60
2023-04-20T02:45:55.915Z,46.70
2023-04-20T02:48:57.932Z,49.00
2023-04-20T02:55:02.174Z,42.60
2023-04-20T02:58:03.914Z,46.20
2023-04-20T03:01:25.869Z,46.70
2023-04-20T03:04:34.298Z,47.20
2023-04-20T03:07:56.299Z,46.60
2023-04-20T03:10:59.963Z,43.20
2023-04-20T03:14:01.963Z,45.90
2023-04-20T03:17:03.838Z,43.50
2023-04-20T03:20:08.606Z,46.70
2023-04-20T03:23:10.582Z,53.40
2023-04-20T03:26:12.947Z,53.40
2023-04-20T03:29:20.784Z,49.30
2023-04-20T03:32:22.583Z,49.10
2023-04-20T03:35:24.616Z,48.10
2023-04-20T03:38:26.306Z,80.60
2023-04-20T03:41:28.223Z,54.90
2023-04-20T03:44:30.136Z,71.20
2023-04-20T03:47:31.869Z,63.80
2023-04-20T03:50:33.744Z,59.00
2023-04-20T03:53:35.975Z,53.60
2023-04-20T03:56:38.789Z,52.40
2023-04-20T03:59:40.523Z,57.80
2023-04-20T04:02:43.208Z,48.50
2023-04-20T04:05:45.074Z,48.50
2023-04-20T04:08:46.717Z,50.90
2023-04-20T04:11:48.470Z,52.40
2023-04-20T04:14:50.274Z,53.60
2023-04-20T04:20:58.276Z,52.40
2023-04-20T04:24:00.153Z,58.30
2023-04-20T04:27:39.232Z,52.40
2023-04-20T04:30:41.493Z,50.30
2023-04-20T04:33:47.439Z,51.00
2023-04-20T04:36:58.566Z,46.20
2023-04-20T04:40:08.432Z,48.50
2023-04-20T04:43:10.473Z,49.70
2023-04-20T04:46:14.088Z,55.00
2023-04-20T04:49:16.289Z,46.10
2023-04-20T04:52:18.159Z,47.40
2023-04-20T04:55:20.085Z,49.30
2023-04-20T04:58:21.866Z,49.90
2023-04-20T05:01:23.576Z,52.80
2023-04-20T05:04:25.477Z,48.50
2023-04-20T05:07:27.290Z,53.50
2023-04-20T05:10:29.002Z,49.40
2023-04-20T05:13:33.161Z,50.40
2023-04-20T05:16:34.897Z,49.70
2023-04-20T05:19:36.591Z,49.70
2023-04-20T05:22:38.208Z,49.00
2023-04-20T05:25:39.991Z,48.10
2023-04-20T05:28:41.601Z,49.20
2023-04-20T05:31:44.360Z,45.90
2023-04-20T05:34:46.000Z,50.40
2023-04-20T05:37:48.029Z,46.80
2023-04-20T05:40:50.634Z,42.30
2023-04-20T05:43:56.281Z,45.30
2023-04-20T05:46:57.885Z,43.10
2023-04-20T05:49:59.589Z,40.60
2023-04-20T05:53:01.166Z,43.40
2023-04-20T05:56:03.156Z,41.30
2023-04-20T05:59:05.687Z,44.20
2023-04-20T06:02:07.258Z,50.50
2023-04-20T06:05:09.861Z,45.60
2023-04-20T06:08:12.101Z,47.80
2023-04-20T06:11:13.706Z,44.10
2023-04-20T06:14:15.353Z,45.90
2023-04-20T06:17:17.056Z,54.40
2023-04-20T06:20:19.802Z,48.60
2023-04-20T06:23:21.402Z,49.40
2023-04-20T06:26:23.044Z,55.20
2023-04-20T06:29:24.646Z,57.30
2023-04-20T06:32:26.827Z,54.50
2023-04-20T06:38:30.337Z,40.60
2023-04-20T06:41:31.963Z,58.60
2023-04-20T06:44:36.668Z,50.70
2023-04-20T06:47:38.737Z,57.70
2023-04-20T06:50:47.962Z,55.90
2023-04-20T06:53:49.550Z,49.40
2023-04-20T06:56:51.116Z,49.70
2023-04-20T06:59:53.207Z,49.30
2023-04-20T07:02:54.996Z,54.90
2023-04-20T07:05:56.707Z,53.70
2023-04-20T07:08:58.430Z,53.40
2023-04-20T07:12:00.351Z,50.60
2023-04-20T07:15:06.995Z,55.20
2023-04-20T07:18:08.718Z,60.30
2023-04-20T07:21:10.451Z,50.60
2023-04-20T07:24:12.344Z,55.50
2023-04-20T07:27:14.054Z,57.00
2023-04-20T07:30:17.510Z,55.00
2023-04-20T07:33:20.508Z,50.90
2023-04-20T07:36:22.564Z,47.60
2023-04-20T07:39:26.674Z,42.90
2023-04-20T07:42:28.590Z,44.50
2023-04-20T07:45:30.267Z,48.70
2023-04-20T07:48:34.567Z,46.50
2023-04-20T07:51:36.540Z,42.20
2023-04-20T07:54:38.583Z,42.70
2023-04-20T07:57:41.035Z,40.60
2023-04-20T08:00:45.077Z,39.10
2023-04-20T08:03:46.816Z,40.90
2023-04-20T08:06:48.672Z,36.10
2023-04-20T08:09:50.432Z,33.90
2023-04-20T08:12:52.942Z,35.50
2023-04-20T08:15:54.733Z,33.60
2023-04-20T08:18:56.396Z,36.80
2023-04-20T08:22:00.110Z,30.00
2023-04-20T08:25:03.194Z,28.60
2023-04-20T08:28:08.649Z,26.60
2023-04-20T08:31:13.157Z,27.40
2023-04-20T08:34:15.357Z,28.50
2023-04-20T08:40:19.548Z,26.10
2023-04-20T08:43:22.107Z,27.00
2023-04-20T08:46:24.378Z,29.00
2023-04-20T08:49:29.330Z,25.80
2023-04-20T08:52:32.262Z,26.10
2023-04-20T08:55:33.928Z,24.70
2023-04-20T08:58:37.963Z,27.80
2023-04-20T09:01:41.394Z,27.70
2023-04-20T09:04:43.302Z,27.30
2023-04-20T09:07:52.766Z,23.70
2023-04-20T09:10:54.593Z,28.10
2023-04-20T09:14:06.024Z,24.80
2023-04-20T09:17:07.723Z,23.10
2023-04-20T09:20:10.683Z,24.00
2023-04-20T09:23:17.716Z,23.30
2023-04-20T09:26:19.639Z,21.50
2023-04-20T09:29:23.502Z,25.10
2023-04-20T09:32:26.088Z,23.90
2023-04-20T09:35:27.771Z,21.50
2023-04-20T09:38:30.521Z,21.50
2023-04-20T09:44:38.132Z,22.10
2023-04-20T09:47:42.349Z,21.20
2023-04-20T09:50:50.038Z,24.00
2023-04-20T09:53:58.555Z,18.30
2023-04-20T09:57:01.148Z,17.80
2023-04-20T10:00:06.430Z,18.90
2023-04-20T10:03:09.931Z,18.80
2023-04-20T10:06:23.614Z,17.40
2023-04-20T10:09:25.741Z,20.00
2023-04-20T10:12:27.696Z,17.70
2023-04-20T10:15:40.118Z,22.40
2023-04-20T10:18:42.276Z,21.90
2023-04-20T10:21:49.163Z,15.80
2023-04-20T10:24:50.985Z,16.10
2023-04-20T10:28:03.981Z,15.60
2023-04-20T10:31:12.285Z,17.40
2023-04-20T10:34:14.135Z,18.00
2023-04-20T10:37:15.878Z,14.30
2023-04-20T10:40:26.526Z,15.00
2023-04-20T10:43:29.243Z,18.20
2023-04-20T10:46:31.204Z,17.60
2023-04-20T10:49:33.051Z,20.80
2023-04-20T10:52:36.773Z,16.30
2023-04-20T10:55:38.549Z,15.30
2023-04-20T10:58:41.046Z,16.00
2023-04-20T11:01:47.007Z,17.00
2023-04-20T11:04:48.941Z,16.90
2023-04-20T11:07:53.037Z,17.00
2023-04-20T11:10:54.836Z,18.10
2023-04-20T11:14:08.115Z,17.10
2023-04-20T11:17:09.932Z,13.70
2023-04-20T11:20:14.532Z,10.80
2023-04-20T11:23:16.332Z,12.90
2023-04-20T11:26:18.210Z,11.90
2023-04-20T11:29:54.952Z,14.50
2023-04-20T11:32:56.867Z,10.20
2023-04-20T11:35:59.789Z,10.90
2023-04-20T11:39:09.195Z,10.40
2023-04-20T11:42:11.008Z,9.60
2023-04-20T11:45:12.814Z,10.00
2023-04-20T11:48:14.568Z,12.60
2023-04-20T11:51:16.472Z,14.40
2023-04-20T11:54:18.688Z,12.70
2023-04-20T12:00:25.301Z,12.70
2023-04-20T12:03:27.648Z,12.40
2023-04-20T12:06:31.326Z,14.40
2023-04-20T12:09:37.647Z,11.10
2023-04-20T12:12:41.450Z,10.90
2023-04-20T12:15:43.260Z,10.90
2023-04-20T12:18:45.092Z,12.90
2023-04-20T12:21:47.425Z,15.70
2023-04-20T12:27:51.110Z,10.60
2023-04-20T12:30:52.960Z,10.50
2023-04-20T12:33:54.775Z,10.50
2023-04-20T12:36:56.532Z,11.80
2023-04-20T12:39:58.439Z,13.20
2023-04-20T12:43:00.361Z,11.50
2023-04-20T12:46:02.141Z,13.90
2023-04-20T12:49:04.005Z,12.10
2023-04-20T12:52:07.614Z,14.10
2023-04-20T12:55:10.652Z,9.20
2023-04-20T12:58:12.610Z,9.50
2023-04-20T13:01:14.430Z,11.50
2023-04-20T13:04:16.766Z,7.80
2023-04-20T13:07:18.970Z,11.00
2023-04-20T13:10:20.754Z,12.60
2023-04-20T13:13:22.585Z,13.90
2023-04-20T13:16:24.487Z,6.80
2023-04-20T13:19:30.057Z,10.00
2023-04-20T13:22:31.845Z,9.40
2023-04-20T13:25:34.062Z,12.50
2023-04-20T13:31:40.031Z,12.00
2023-04-20T13:34:41.823Z,9.10
2023-04-20T13:37:44.671Z,10.80
2023-04-20T13:40:46.718Z,7.40
2023-04-20T13:43:48.851Z,12.50
2023-04-20T13:46:50.735Z,10.50
2023-04-20T13:49:52.783Z,7.90
2023-04-20T13:52:54.769Z,7.80
2023-04-20T13:55:57.247Z,8.70
2023-04-20T13:58:59.263Z,9.70
2023-04-20T14:02:01.063Z,9.90
2023-04-20T14:05:03.563Z,13.00
2023-04-20T14:08:06.789Z,12.40
2023-04-20T14:11:08.575Z,9.80
2023-04-20T14:14:10.478Z,8.20
2023-04-20T14:17:12.304Z,11.70
2023-04-20T14:20:14.054Z,6.80
2023-04-20T14:23:15.873Z,9.30
2023-04-20T14:26:18.366Z,10.50
2023-04-20T14:29:20.249Z,6.90
2023-04-20T14:32:22.070Z,12.40
2023-04-20T14:35:25.890Z,8.80
2023-04-20T14:38:27.686Z,10.00
2023-04-20T14:41:30.711Z,11.10
2023-04-20T14:44:34.096Z,11.10
2023-04-20T14:47:35.956Z,10.90
2023-04-20T14:50:38.060Z,9.50
2023-04-20T14:56:41.600Z,14.10
2023-04-20T14:59:43.407Z,12.40
2023-04-20T15:02:45.497Z,16.10
2023-04-20T15:08:49.846Z,5.80
2023-04-20T15:11:51.610Z,6.50
2023-04-20T15:14:53.449Z,9.00
2023-04-20T15:17:55.335Z,12.90
2023-04-20T15:20:57.136Z,7.20
2023-04-20T15:23:58.964Z,9.30
2023-04-20T15:27:01.145Z,6.60
2023-04-20T15:30:03.793Z,6.20
2023-04-20T15:33:07.706Z,12.00
2023-04-20T15:36:10.726Z,9.40
2023-04-20T15:39:13.801Z,7.50
2023-04-20T15:42:20.365Z,9.80
2023-04-20T15:45:24.711Z,9.50
2023-04-20T15:48:28.973Z,8.80
2023-04-20T15:51:31.173Z,10.00
2023-04-20T15:57:37.636Z,8.30
2023-04-20T16:00:42.552Z,9.70
2023-04-20T16:03:46.047Z,9.80
2023-04-20T16:06:48.353Z,9.80
2023-04-20T16:09:50.146Z,11.60
2023-04-20T16:12:52.502Z,9.50
2023-04-20T16:15:55.536Z,10.40
2023-04-20T16:18:57.845Z,11.00
2023-04-20T16:25:01.323Z,10.50
2023-04-20T16:28:05.309Z,11.20
2023-04-20T16:34:11.922Z,9.40
2023-04-20T16:37:14.675Z,8.70
2023-04-20T16:40:17.875Z,12.00
2023-04-20T16:43:19.679Z,11.10
2023-04-20T16:46:22.447Z,7.70
2023-04-20T16:49:24.244Z,9.00
2023-04-20T16:52:30.556Z,9.60
2023-04-20T16:55:32.726Z,8.10
2023-04-20T17:01:39.438Z,6.60
2023-04-20T17:04:41.352Z,7.80
2023-04-20T17:07:44.875Z,7.30
2023-04-20T17:10:46.776Z,9.20
2023-04-20T17:13:51.852Z,9.80
2023-04-20T17:16:58.241Z,9.80
2023-04-20T17:20:00.932Z,9.10
2023-04-20T17:23:06.591Z,9.70
2023-04-20T17:26:08.500Z,9.90
2023-04-20T17:29:10.277Z,12.50
2023-04-20T17:32:12.311Z,13.40
2023-04-20T17:35:14.368Z,8.70
2023-04-20T17:38:16.260Z,9.90
2023-04-20T17:41:17.963Z,13.90
2023-04-20T17:44:20.050Z,11.10
2023-04-20T17:47:22.093Z,11.40
2023-04-20T17:50:23.951Z,11.80
2023-04-20T17:53:33.177Z,13.20
2023-04-20T17:56:34.912Z,15.40
2023-04-20T17:59:36.696Z,18.00
2023-04-20T18:02:39.112Z,18.20
2023-04-20T18:05:41.658Z,16.50
2023-04-20T18:11:46.694Z,18.20
2023-04-20T18:14:51.488Z,16.80
2023-04-20T18:17:53.323Z,16.00
2023-04-20T18:20:55.111Z,17.30
2023-04-20T18:23:56.908Z,12.50
2023-04-20T18:26:58.709Z,21.10
2023-04-20T18:30:00.692Z,18.90
2023-04-20T18:33:02.493Z,15.60
2023-04-20T18:36:05.086Z,16.40
2023-04-20T18:39:08.891Z,18.20
2023-04-20T18:42:11.007Z,16.50
2023-04-20T18:48:14.620Z,13.70
2023-04-20T18:51:16.355Z,15.60
2023-04-20T18:54:18.401Z,11.50
2023-04-20T18:57:25.404Z,15.10
2023-04-20T19:00:27.280Z,13.30
2023-04-20T19:03:29.476Z,12.90
2023-04-20T19:09:33.580Z,14.50
2023-04-20T19:15:40.779Z,13.10
2023-04-20T19:18:43.392Z,15.10
2023-04-20T19:21:45.097Z,15.10
2023-04-20T19:24:46.835Z,12.50
2023-04-20T19:27:49.170Z,13.50
2023-04-20T19:30:51.108Z,14.60
2023-04-20T19:33:53.604Z,16.60
2023-04-20T19:36:56.014Z,11.20
2023-04-20T19:39:58.476Z,12.80
2023-04-20T19:43:00.205Z,16.70
2023-04-20T19:46:02.035Z,16.50
2023-04-20T19:52:05.894Z,19.20
2023-04-20T19:55:08.145Z,18.30
2023-04-20T19:58:10.531Z,25.20
2023-04-20T20:01:12.511Z,26.20
2023-04-20T20:04:14.662Z,28.30
2023-04-20T20:10:20.393Z,26.20
2023-04-20T20:13:22.331Z,27.60
2023-04-20T20:16:24.271Z,24.70
2023-04-20T20:19:26.836Z,23.80
2023-04-20T20:22:28.683Z,25.50
2023-04-20T20:25:30.572Z,23.60
2023-04-20T20:28:32.880Z,27.20
2023-04-20T20:34:36.369Z,25.60
2023-04-20T20:37:39.585Z,18.90
2023-04-20T20:40:41.558Z,22.20
2023-04-20T20:43:43.293Z,25.30
2023-04-20T20:46:45.042Z,30.90
2023-04-20T20:49:46.708Z,25.60
2023-04-20T20:52:49.181Z,28.10
2023-04-20T20:55:53.375Z,28.00
2023-04-20T20:58:55.103Z,23.80
2023-04-20T21:01:56.755Z,27.90
2023-04-20T21:04:58.500Z,30.60
2023-04-20T21:08:00.151Z,27.10
2023-04-20T21:11:01.912Z,29.30
2023-04-20T21:14:03.656Z,31.10
2023-04-20T21:17:05.407Z,31.30
2023-04-20T21:20:08.598Z,30.80
2023-04-20T21:23:10.302Z,31.80
2023-04-20T21:26:12.547Z,33.60
2023-04-20T21:32:16.095Z,28.10
2023-04-20T21:35:17.928Z,30.80
2023-04-20T21:38:19.684Z,31.90
2023-04-20T21:41:21.498Z,34.00
2023-04-20T21:44:23.280Z,35.60
2023-04-20T21:47:25.317Z,40.30
2023-04-20T21:50:27.982Z,36.70
2023-04-20T21:53:29.674Z,42.00
2023-04-20T21:56:31.398Z,45.00
2023-04-20T21:59:33.138Z,41.30
2023-04-20T22:02:35.050Z,37.80
2023-04-20T22:05:37.329Z,39.60
2023-04-20T22:08:39.120Z,41.20
2023-04-20T22:11:40.886Z,38.70
2023-04-20T22:14:42.586Z,33.20
2023-04-20T22:17:47.148Z,36.00
2023-04-20T22:20:49.184Z,35.80
2023-04-20T22:23:51.576Z,29.90
2023-04-20T22:29:55.532Z,29.10
2023-04-20T22:35:59.006Z,22.20
2023-04-20T22:39:00.763Z,19.60
2023-04-20T22:42:02.448Z,21.20
2023-04-20T22:45:04.723Z,21.10
2023-04-20T22:48:06.557Z,18.60
2023-04-20T22:51:08.332Z,19.50
2023-04-20T22:54:10.109Z,18.10
2023-04-20T22:57:11.774Z,18.30
2023-04-20T23:00:14.068Z,17.60
2023-04-20T23:06:18.104Z,22.10
2023-04-20T23:09:20.079Z,19.30
2023-04-20T23:12:21.969Z,20.40
2023-04-20T23:15:23.667Z,19.80
2023-04-20T23:18:25.358Z,19.90
2023-04-20T23:21:28.069Z,18.00
2023-04-20T23:24:29.901Z,19.70
2023-04-20T23:27:31.580Z,16.90
2023-04-20T23:30:33.279Z,21.40
2023-04-20T23:33:35.020Z,21.80
2023-04-20T23:36:36.769Z,18.70
2023-04-20T23:39:38.567Z,21.60
2023-04-20T23:42:40.294Z,16.70
2023-04-20T23:45:42.057Z,25.00
2023-04-20T23:48:44.075Z,17.20
2023-04-20T23:51:45.724Z,20.20
2023-04-20T23:54:47.436Z,23.50
2023-04-20T23:57:49.144Z,21.80
